Time;durP1;ratioP1;P1;durP2;ratioP2;P2;SDS_P1;SDS_P2;PMS_P1;PMS_P2;Temp;Humidity;BMP_temperature;BMP_pressure;BME280_temperature;BME280_humidity;BME280_pressure;Samples;Min_cycle;Max_cycle;Signal;HPM_P1;HPM_P2
2023/04/09 00:01:57;;;;;;;35.97;33.08;;;;;;;16.62;51.90;102443.84;5012645;28;20085;-82
2023/04/09 00:04:22;;;;;;;35.50;32.67;;;;;;;16.61;51.92;102453.13;5011567;28;20117;-83
2023/04/09 00:06:48;;;;;;;31.55;29.08;;;;;;;16.59;51.65;102444.34;5019114;28;20080;-82
2023/04/09 00:09:13;;;;;;;40.45;36.78;;;;;;;16.59;51.92;102443.53;5038119;28;20397;-83
2023/04/09 00:11:39;;;;;;;37.22;33.95;;;;;;;16.57;51.75;102449.19;5019810;28;20084;-84
2023/04/09 00:14:04;;;;;;;37.85;34.95;;;;;;;16.57;51.88;102451.13;5012496;28;20425;-83
2023/04/09 00:16:30;;;;;;;36.47;33.85;;;;;;;16.54;51.92;102449.69;5011166;28;20045;-84
2023/04/09 00:18:55;;;;;;;34.78;32.15;;;;;;;16.54;51.76;102443.41;5016385;28;20462;-84
2023/04/09 00:21:21;;;;;;;35.30;32.67;;;;;;;16.53;51.94;102437.13;5033027;28;20041;-83
2023/04/09 00:23:47;;;;;;;34.42;31.88;;;;;;;16.51;52.04;102439.28;5011313;28;20463;-83
2023/04/09 00:26:12;;;;;;;35.53;32.90;;;;;;;16.50;51.82;102434.88;5028485;28;20026;-83
2023/04/09 00:28:37;;;;;;;35.88;32.65;;;;;;;16.49;51.91;102430.50;5030641;28;20038;-83
2023/04/09 00:31:03;;;;;;;35.35;32.53;;;;;;;16.49;52.04;102438.69;5037424;28;20046;-83
2023/04/09 00:33:28;;;;;;;35.97;33.00;;;;;;;16.48;51.83;102430.72;5026693;28;20324;-82
2023/04/09 00:35:54;;;;;;;33.13;30.67;;;;;;;16.48;51.97;102430.72;5027290;28;20105;-83
2023/04/09 00:38:19;;;;;;;35.85;32.80;;;;;;;16.46;51.74;102435.63;5024122;28;20033;-83
2023/04/09 00:40:49;;;;;;;34.85;32.15;;;;;;;16.44;51.96;102428.50;5049886;28;20033;-83
2023/04/09 00:43:15;;;;;;;37.13;34.03;;;;;;;16.44;51.88;102427.66;5011279;28;20091;-82
2023/04/09 00:45:41;;;;;;;34.30;31.67;;;;;;;16.44;51.79;102430.38;5035928;28;20525;-82
2023/04/09 00:48:07;;;;;;;35.60;33.05;;;;;;;16.42;51.48;102421.63;5011830;28;20177;-84
2023/04/09 00:50:32;;;;;;;34.90;32.30;;;;;;;16.41;51.86;102419.97;5014941;28;20095;-83
2023/04/09 00:52:58;;;;;;;35.38;32.60;;;;;;;16.40;51.79;102413.69;5030809;28;20128;-83
2023/04/09 00:55:24;;;;;;;36.42;33.50;;;;;;;16.40;52.13;102415.56;5013496;28;20070;-83
2023/04/09 00:57:49;;;;;;;36.30;33.10;;;;;;;16.38;52.22;102420.47;5017189;28;20038;-83
2023/04/09 01:00:15;;;;;;;34.58;31.73;;;;;;;16.38;51.97;102417.72;5011338;28;20040;-83
2023/04/09 01:02:41;;;;;;;35.78;33.15;;;;;;;16.38;52.08;102409.56;5037502;28;20433;-83
2023/04/09 01:05:07;;;;;;;34.03;31.45;;;;;;;16.36;51.96;102412.50;5011727;28;20112;-83
2023/04/09 01:07:52;;;;;;;35.53;32.55;;;;;;;16.34;52.05;102420.09;5011261;28;20116;-83
2023/04/09 01:10:30;;;;;;;37.22;33.88;;;;;;;16.32;52.05;102411.31;5026195;28;20052;-85
2023/04/09 01:13:27;;;;;;;36.83;33.65;;;;;;;16.30;52.12;102418.09;5037740;28;20037;-83
2023/04/09 01:15:58;;;;;;;34.15;31.40;;;;;;;16.31;52.38;102403.41;5014915;28;20084;-83
2023/04/09 01:18:38;;;;;;;35.47;32.72;;;;;;;16.29;52.04;102406.34;5014857;28;20492;-82
2023/04/09 01:21:08;;;;;;;35.28;32.17;;;;;;;16.29;51.95;102397.34;5028066;28;20084;-83
2023/04/09 01:23:57;;;;;;;35.53;32.53;;;;;;;16.26;52.31;102398.66;5033024;28;20091;-84
2023/04/09 01:27:01;;;;;;;40.92;36.75;;;;;;;16.27;52.08;102394.03;5029686;28;20402;-83
2023/04/09 01:29:32;;;;;;;35.35;32.50;;;;;;;16.23;52.48;102399.97;5004058;28;20457;-84
2023/04/09 01:31:59;;;;;;;34.80;31.65;;;;;;;16.23;52.01;102399.16;5020471;28;20477;-85
2023/04/09 01:34:27;;;;;;;41.00;37.03;;;;;;;16.22;52.32;102397.47;5020058;28;20066;-83
2023/04/09 01:36:57;;;;;;;35.42;32.72;;;;;;;16.22;51.92;102392.84;5050680;28;20034;-83
2023/04/09 01:39:24;;;;;;;38.00;34.63;;;;;;;16.23;52.07;102393.69;5033109;28;20029;-84
2023/04/09 01:41:50;;;;;;;35.42;32.22;;;;;;;16.22;52.15;102389.28;5049692;28;20120;-83
2023/04/09 01:44:17;;;;;;;37.28;34.22;;;;;;;16.21;52.18;102388.47;5025675;28;20064;-84
2023/04/09 01:46:42;;;;;;;40.35;36.45;;;;;;;16.21;52.53;102387.66;5024501;28;20044;-84
2023/04/09 01:49:11;;;;;;;36.47;33.05;;;;;;;16.21;52.27;102390.38;5032790;28;20037;-84
2023/04/09 01:51:37;;;;;;;39.17;35.28;;;;;;;16.19;52.17;102384.31;5032942;28;20123;-83
2023/04/09 01:54:03;;;;;;;39.15;35.13;;;;;;;16.19;51.99;102390.59;5041890;28;20388;-83
2023/04/09 01:56:45;;;;;;;38.53;35.22;;;;;;;16.18;52.46;102383.50;5017645;28;20038;-83
2023/04/09 01:59:11;;;;;;;37.88;34.33;;;;;;;16.18;51.96;102388.13;5027300;28;20041;-84
2023/04/09 02:01:50;;;;;;;37.75;34.22;;;;;;;16.16;52.09;102390.25;5018654;28;20117;-84
2023/04/09 02:04:21;;;;;;;37.05;33.97;;;;;;;16.16;52.30;102384.81;5017775;28;20532;-83
2023/04/09 02:06:58;;;;;;;39.33;35.65;;;;;;;16.16;52.11;102387.53;5029588;28;20397;-83
2023/04/09 02:09:26;;;;;;;38.13;34.53;;;;;;;16.14;52.18;102384.22;5032415;28;20079;-83
2023/04/09 02:11:52;;;;;;;36.17;32.72;;;;;;;16.12;51.98;102389.91;5033866;28;20444;-83
2023/04/09 02:14:19;;;;;;;34.63;31.48;;;;;;;16.13;51.89;102388.03;5034329;28;20046;-84
2023/04/09 02:16:45;;;;;;;35.55;32.40;;;;;;;16.12;52.22;102386.34;5018201;28;20057;-84
2023/04/09 02:19:11;;;;;;;43.10;38.70;;;;;;;16.12;52.15;102383.63;5014227;28;20038;-84
2023/04/09 02:21:36;;;;;;;42.85;38.22;;;;;;;16.12;52.38;102380.91;5013777;28;20068;-83
2023/04/09 02:24:02;;;;;;;38.30;34.83;;;;;;;16.11;52.26;102382.78;5031511;28;20037;-83
2023/04/09 02:26:27;;;;;;;40.72;36.72;;;;;;;16.10;52.22;102380.28;5029262;28;20065;-84
2023/04/09 02:28:53;;;;;;;39.42;35.33;;;;;;;16.09;52.08;102384.94;5014113;28;20091;-84
2023/04/09 02:31:18;;;;;;;36.30;32.85;;;;;;;16.08;52.32;102386.00;5013407;28;20054;-83
2023/04/09 02:33:43;;;;;;;35.95;32.88;;;;;;;16.08;52.11;102382.47;5013357;28;20029;-84
2023/04/09 02:36:12;;;;;;;36.65;33.45;;;;;;;16.08;52.11;102385.19;5049199;28;20041;-83
2023/04/09 02:38:41;;;;;;;37.50;34.08;;;;;;;16.06;52.29;102390.88;5014695;28;20049;-84
2023/04/09 02:41:06;;;;;;;;;;;;;;;16.01;52.28;102377.94;5027768;28;20439;-83
2023/04/09 02:43:31;;;;;;;37.85;34.22;;;;;;;16.01;52.12;102374.41;5031331;28;19912;-82
2023/04/09 02:45:57;;;;;;;39.88;36.05;;;;;;;16.01;52.06;102374.41;5033323;28;20511;-84
2023/04/09 02:48:22;;;;;;;34.22;31.25;;;;;;;16.00;52.01;102372.72;5030806;28;20052;-84
2023/04/09 02:50:48;;;;;;;35.83;32.50;;;;;;;15.99;52.30;102366.44;5032919;28;20033;-83
2023/04/09 02:53:13;;;;;;;36.67;33.20;;;;;;;16.00;52.37;102367.28;5048109;28;20041;-83
2023/04/09 02:55:39;;;;;;;37.67;34.03;;;;;;;15.99;52.25;102368.34;5032965;28;20076;-84
2023/04/09 02:58:05;;;;;;;34.72;31.33;;;;;;;16.00;52.10;102370.00;5031773;28;20083;-83
2023/04/09 03:00:30;;;;;;;38.58;34.92;;;;;;;15.99;52.34;102362.91;5032041;28;20033;-84
2023/04/09 03:02:57;;;;;;;36.88;33.20;;;;;;;15.99;52.36;102365.63;5031325;28;20129;-84
2023/04/09 03:05:22;;;;;;;36.70;33.55;;;;;;;15.98;52.33;102364.00;5032519;28;20424;-83
2023/04/09 03:07:48;;;;;;;37.42;33.75;;;;;;;15.97;52.32;102365.84;5039506;28;20585;-83
2023/04/09 03:10:14;;;;;;;39.70;35.92;;;;;;;15.96;52.08;102366.13;5028555;28;20033;-83
2023/04/09 03:12:39;;;;;;;38.85;34.97;;;;;;;15.96;52.51;102368.84;5023431;28;20041;-83
2023/04/09 03:15:05;;;;;;;35.55;32.70;;;;;;;15.95;52.20;102367.16;5032538;28;20116;-84
2023/04/09 03:17:31;;;;;;;37.33;33.83;;;;;;;15.95;52.39;102367.16;5020424;28;20040;-84
2023/04/09 03:19:56;;;;;;;36.78;33.38;;;;;;;15.93;52.21;102353.78;5029884;28;20038;-83
2023/04/09 03:22:22;;;;;;;35.83;32.45;;;;;;;15.92;52.28;102354.84;5030402;28;20038;-83
2023/04/09 03:24:47;;;;;;;36.33;33.13;;;;;;;15.91;52.52;102353.19;5028948;28;20469;-84
2023/04/09 03:27:13;;;;;;;37.40;33.70;;;;;;;15.90;52.41;102348.84;5022702;28;20108;-85
2023/04/09 03:29:38;;;;;;;39.13;35.53;;;;;;;15.92;52.15;102351.31;5017761;28;20152;-83
2023/04/09 03:32:03;;;;;;;37.95;34.15;;;;;;;15.89;52.57;102344.44;5023502;28;20049;-83
2023/04/09 03:34:29;;;;;;;36.38;33.20;;;;;;;15.89;52.23;102352.59;5028107;28;20029;-84
2023/04/09 03:36:54;;;;;;;35.60;32.47;;;;;;;15.88;52.37;102336.50;5030096;28;20121;-83
2023/04/09 03:39:20;;;;;;;33.60;30.45;;;;;;;15.88;52.26;102337.34;5019478;28;20041;-84
2023/04/09 03:41:45;;;;;;;37.10;33.50;;;;;;;15.86;52.52;102336.75;5012257;28;20076;-84
2023/04/09 03:44:11;;;;;;;35.72;32.15;;;;;;;15.86;52.44;102330.47;5028428;28;20065;-83
2023/04/09 03:46:36;;;;;;;38.70;34.95;;;;;;;15.86;52.52;102333.19;5012283;28;20048;-84
2023/04/09 03:49:01;;;;;;;38.33;34.55;;;;;;;15.85;52.22;102339.69;5027602;28;20555;-84
2023/04/09 03:51:27;;;;;;;36.83;33.42;;;;;;;15.84;52.11;102335.31;5035708;28;20049;-84
2023/04/09 03:53:52;;;;;;;36.72;33.50;;;;;;;15.84;52.61;102332.59;5011242;28;20458;-83
2023/04/09 03:56:17;;;;;;;36.22;32.58;;;;;;;15.83;52.22;102339.94;5012636;28;20120;-84
2023/04/09 03:58:43;;;;;;;40.10;36.00;;;;;;;15.82;52.37;102332.81;5032262;28;20509;-83
2023/04/09 04:01:08;;;;;;;35.97;32.50;;;;;;;15.82;52.43;102326.56;5022852;28;20045;-84
2023/04/09 04:03:34;;;;;;;40.25;36.15;;;;;;;15.81;52.40;102333.91;5035990;28;20038;-84
2023/04/09 04:06:03;;;;;;;35.40;32.30;;;;;;;15.81;52.30;102335.81;5012676;28;20038;-83
2023/04/09 04:08:28;;;;;;;35.83;32.47;;;;;;;15.79;52.32;102328.69;5016333;28;20489;-84
2023/04/09 04:10:54;;;;;;;36.30;33.00;;;;;;;15.79;52.65;102328.69;5018705;28;20026;-84
2023/04/09 04:13:19;;;;;;;38.67;35.10;;;;;;;15.79;52.20;102322.41;5046998;28;20034;-83
2023/04/09 04:15:45;;;;;;;35.55;32.08;;;;;;;15.78;52.44;102323.50;5030083;28;20038;-83
2023/04/09 04:18:10;;;;;;;40.05;36.22;;;;;;;15.77;52.69;102319.09;5030997;28;20387;-83
2023/04/09 04:20:37;;;;;;;35.22;32.03;;;;;;;15.78;52.19;102320.75;5050258;28;20041;-83
2023/04/09 04:23:03;;;;;;;37.53;34.22;;;;;;;15.77;52.52;102324.53;5038121;28;20068;-84
2023/04/09 04:25:29;;;;;;;43.63;36.10;;;;;;;15.77;52.31;102324.53;5030415;28;20156;-83
2023/04/09 04:27:55;;;;;;;40.17;36.03;;;;;;;15.76;52.38;102317.44;5030511;28;20041;-84
2023/04/09 04:30:21;;;;;;;37.33;33.50;;;;;;;15.75;52.27;102322.06;5027187;28;20057;-83
2023/04/09 04:32:47;;;;;;;36.70;33.03;;;;;;;15.75;52.51;102319.34;5026870;28;20073;-83
2023/04/09 04:35:12;;;;;;;38.42;35.17;;;;;;;15.74;52.46;102320.41;5032817;28;20396;-83
2023/04/09 04:37:39;;;;;;;39.60;35.53;;;;;;;15.73;52.47;102326.94;5030126;28;20041;-84
2023/04/09 04:40:06;;;;;;;37.55;33.90;;;;;;;15.73;52.24;102329.66;5031529;28;20029;-83
2023/04/09 04:42:32;;;;;;;37.05;33.75;;;;;;;15.72;52.66;102329.88;5030344;28;20094;-82
2023/04/09 04:44:57;;;;;;;37.47;33.75;;;;;;;15.71;52.67;102323.59;5018105;28;20034;-83
2023/04/09 04:47:23;;;;;;;38.00;34.50;;;;;;;15.71;52.43;102326.31;5035414;28;20037;-83
2023/04/09 04:49:48;;;;;;;38.90;34.78;;;;;;;15.70;52.49;102334.72;5033452;28;20034;-83
2023/04/09 04:52:13;;;;;;;40.78;36.80;;;;;;;15.69;52.39;102331.19;5026113;28;20030;-82
2023/04/09 04:54:39;;;;;;;43.42;37.08;;;;;;;15.69;52.29;102327.59;5042040;28;20477;-85
2023/04/09 04:57:05;;;;;;;44.38;34.85;;;;;;;15.69;52.63;102333.06;5035448;28;20034;-82
2023/04/09 04:59:30;;;;;;;37.50;34.40;;;;;;;15.68;52.67;102325.97;5024965;28;20026;-82
2023/04/09 05:01:55;;;;;;;40.33;36.33;;;;;;;15.66;52.59;102328.91;5022128;28;20124;-83
2023/04/09 05:04:21;;;;;;;34.65;31.45;;;;;;;15.66;52.25;102322.63;5030553;28;20041;-82
2023/04/09 05:06:46;;;;;;;38.00;33.97;;;;;;;15.65;52.41;102329.13;5030658;28;20038;-83
2023/04/09 05:09:11;;;;;;;37.35;33.35;;;;;;;15.65;52.46;102327.25;5025741;28;20116;-82
2023/04/09 05:11:37;;;;;;;37.25;33.40;;;;;;;15.64;52.70;102324.75;5050410;28;20068;-82
2023/04/09 05:14:03;;;;;;;36.10;32.35;;;;;;;15.64;52.40;102320.13;5026446;28;20448;-83
2023/04/09 05:16:29;;;;;;;37.58;33.97;;;;;;;15.63;52.69;102334.00;5020266;28;20457;-82
2023/04/09 05:18:54;;;;;;;37.83;33.92;;;;;;;15.62;52.46;102330.44;5048553;28;20041;-81
2023/04/09 05:21:19;;;;;;;36.83;32.97;;;;;;;15.62;52.50;102329.63;5034829;28;20039;-82
2023/04/09 05:23:45;;;;;;;39.10;35.30;;;;;;;15.60;52.35;102327.16;5035565;28;20029;-81
2023/04/09 05:26:10;;;;;;;37.20;33.70;;;;;;;15.60;52.69;102332.59;5035829;28;20488;-81
2023/04/09 05:28:39;;;;;;;36.92;33.65;;;;;;;15.58;52.75;102338.28;5034056;28;20111;-81
2023/04/09 05:31:06;;;;;;;36.92;32.55;;;;;;;15.57;52.54;102336.63;5034975;28;20050;-82
2023/04/09 05:33:36;;;;;;;36.38;33.03;;;;;;;15.58;52.64;102345.63;5050414;28;20056;-81
2023/04/09 05:36:01;;;;;;;37.25;33.90;;;;;;;15.56;52.55;102340.41;5022517;28;20038;-82
2023/04/09 05:38:27;;;;;;;35.70;32.22;;;;;;;15.57;52.48;102335.78;5033780;28;20037;-82
2023/04/09 05:40:52;;;;;;;36.95;33.65;;;;;;;15.56;52.74;102340.41;5035218;28;20370;-82
2023/04/09 05:43:18;;;;;;;36.50;33.28;;;;;;;15.54;52.85;102342.53;5034742;28;20091;-81
2023/04/09 05:45:43;;;;;;;33.20;30.40;;;;;;;15.55;52.90;102344.19;5016182;28;20041;-82
2023/04/09 05:48:08;;;;;;;39.22;32.90;;;;;;;15.54;52.50;102345.25;5050854;28;20040;-82
2023/04/09 05:50:34;;;;;;;39.75;35.80;;;;;;;15.53;52.51;102340.06;5035870;28;20120;-82
2023/04/09 05:52:59;;;;;;;33.83;30.50;;;;;;;15.53;52.62;102345.50;5037160;28;20120;-82
2023/04/09 05:55:25;;;;;;;39.05;33.42;;;;;;;15.52;52.55;102335.66;5035332;28;20076;-82
2023/04/09 05:57:53;;;;;;;40.00;35.63;;;;;;;15.53;52.71;102350.94;5036435;28;20044;-82
2023/04/09 06:00:18;;;;;;;38.13;34.10;;;;;;;15.51;52.53;102342.19;5024231;28;20524;-82
2023/04/09 06:02:44;;;;;;;36.38;33.03;;;;;;;15.51;52.72;102342.19;5043500;28;20033;-82
2023/04/09 06:05:10;;;;;;;36.25;32.60;;;;;;;15.50;52.84;102344.06;5034661;28;20042;-82
2023/04/09 06:07:35;;;;;;;37.03;33.35;;;;;;;15.50;52.78;102345.97;5046697;28;20029;-82
2023/04/09 06:10:01;;;;;;;33.72;30.65;;;;;;;15.49;52.68;102345.13;5053730;28;20021;-81
2023/04/09 06:12:27;;;;;;;37.72;34.13;;;;;;;15.49;52.76;102345.13;5043688;28;20022;-81
2023/04/09 06:14:52;;;;;;;39.88;35.70;;;;;;;15.49;52.60;102350.56;5049564;28;20017;-81
2023/04/09 06:17:18;;;;;;;37.03;33.38;;;;;;;15.49;52.65;102347.84;5056329;28;20075;-81
2023/04/09 06:19:43;;;;;;;38.67;33.88;;;;;;;15.49;52.54;102347.03;5029918;28;20034;-82
2023/04/09 06:22:09;;;;;;;39.33;35.22;;;;;;;15.49;53.00;102347.03;5026976;28;20034;-82
2023/04/09 06:24:35;;;;;;;38.47;34.70;;;;;;;15.49;52.58;102350.56;5031215;28;20060;-81
2023/04/09 06:27:00;;;;;;;46.50;36.97;;;;;;;15.48;52.52;102351.66;5037697;28;20057;-82
2023/04/09 06:29:26;;;;;;;38.08;34.42;;;;;;;15.49;52.49;102353.28;5047018;28;20362;-82
2023/04/09 06:31:51;;;;;;;32.30;29.52;;;;;;;15.49;52.71;102358.75;5040390;28;20121;-82
2023/04/09 06:34:17;;;;;;;34.72;31.55;;;;;;;15.48;52.67;102365.28;5041410;28;20043;-81
2023/04/09 06:36:43;;;;;;;36.75;32.88;;;;;;;15.48;52.81;102367.16;5036018;28;20041;-81
2023/04/09 06:39:09;;;;;;;36.30;32.67;;;;;;;15.48;52.54;102369.91;5068339;28;20033;-82
2023/04/09 06:41:34;;;;;;;35.42;32.20;;;;;;;15.47;52.71;102363.63;5036628;28;20061;-82
2023/04/09 06:44:00;;;;;;;37.58;34.08;;;;;;;15.48;52.58;102364.44;5032945;28;20085;-82
2023/04/09 06:46:25;;;;;;;34.42;31.50;;;;;;;15.48;52.66;102369.91;5048720;28;20105;-82
2023/04/09 06:48:52;;;;;;;37.95;34.53;;;;;;;15.48;52.76;102372.63;5037257;28;20098;-82
2023/04/09 06:51:17;;;;;;;34.38;31.08;;;;;;;15.47;52.50;102374.50;5034040;28;20050;-82
2023/04/09 06:53:43;;;;;;;35.90;32.53;;;;;;;15.47;52.75;102374.50;5046425;28;20044;-81
2023/04/09 06:56:08;;;;;;;34.00;30.75;;;;;;;15.47;52.63;102379.97;5050309;28;20063;-83
2023/04/09 06:58:33;;;;;;;38.17;34.30;;;;;;;15.48;52.86;102376.16;5036600;28;20045;-82
2023/04/09 07:00:59;;;;;;;35.75;32.15;;;;;;;15.47;52.83;102379.09;5035241;28;20033;-82
2023/04/09 07:03:26;;;;;;;35.10;31.20;;;;;;;15.47;52.60;102382.69;5035678;28;20061;-81
2023/04/09 07:05:53;;;;;;;37.88;34.17;;;;;;;15.49;52.83;102382.44;5041475;28;20465;-82
2023/04/09 07:08:18;;;;;;;42.10;35.75;;;;;;;15.50;52.53;102381.38;5025967;28;20045;-81
2023/04/09 07:10:46;;;;;;;38.92;33.70;;;;;;;15.50;52.72;102373.22;5035634;28;20038;-82
2023/04/09 07:13:11;;;;;;;37.95;34.20;;;;;;;15.49;52.56;102371.53;5013798;28;20037;-81
2023/04/09 07:15:37;;;;;;;37.50;33.40;;;;;;;15.50;52.66;102375.94;5031584;28;20397;-82
2023/04/09 07:18:02;;;;;;;38.42;34.30;;;;;;;15.51;52.62;102372.13;5014322;28;20113;-82
2023/04/09 07:20:27;;;;;;;40.25;36.17;;;;;;;15.52;52.54;102376.50;5033859;28;20409;-83
2023/04/09 07:22:53;;;;;;;39.08;35.00;;;;;;;15.52;52.69;102374.63;5032079;28;20048;-82
2023/04/09 07:25:18;;;;;;;35.72;32.22;;;;;;;15.53;52.86;102380.91;5049478;28;20154;-82
2023/04/09 07:27:44;;;;;;;39.70;35.53;;;;;;;15.54;52.71;102377.09;5038996;28;20033;-82
2023/04/09 07:30:10;;;;;;;36.78;32.97;;;;;;;15.54;52.62;102372.47;5031431;28;20069;-83
2023/04/09 07:32:36;;;;;;;38.15;33.72;;;;;;;15.56;52.61;102375.81;5034099;28;20092;-82
2023/04/09 07:35:03;;;;;;;36.80;33.38;;;;;;;15.56;52.59;102378.53;5033245;28;20413;-85
2023/04/09 07:37:29;;;;;;;39.22;35.53;;;;;;;15.58;52.55;102375.59;5037347;28;20082;-83
2023/04/09 07:39:55;;;;;;;36.78;33.35;;;;;;;15.59;52.74;102378.06;5026538;28;20516;-84
2023/04/09 07:42:21;;;;;;;37.42;33.85;;;;;;;15.63;52.92;102380.31;5014091;28;20034;-83
2023/04/09 07:44:47;;;;;;;39.70;35.83;;;;;;;15.63;52.49;102375.69;5032720;28;20388;-82
2023/04/09 07:47:12;;;;;;;38.20;34.50;;;;;;;15.64;52.50;102373.78;5019906;28;20099;-82
2023/04/09 07:49:37;;;;;;;43.67;37.08;;;;;;;15.66;52.76;102377.13;5029762;28;20038;-84
2023/04/09 07:52:04;;;;;;;43.17;38.88;;;;;;;15.69;52.59;102376.63;5012974;28;20440;-84
2023/04/09 07:54:30;;;;;;;42.40;37.97;;;;;;;15.70;52.71;102373.72;5014075;28;20398;-83
2023/04/09 07:56:56;;;;;;;37.55;33.88;;;;;;;15.72;52.67;102374.31;5028164;28;20030;-83
2023/04/09 07:59:22;;;;;;;37.63;33.58;;;;;;;15.74;52.55;102374.06;5015118;28;20125;-84
2023/04/09 08:01:47;;;;;;;36.85;32.88;;;;;;;15.76;52.79;102374.66;5023909;28;20092;-84
2023/04/09 08:04:13;;;;;;;39.97;35.80;;;;;;;15.77;52.73;102379.88;5028446;28;20098;-85
2023/04/09 08:06:38;;;;;;;32.95;30.35;;;;;;;15.80;52.57;102375.84;5012841;28;20394;-83
2023/04/09 08:09:04;;;;;;;40.55;36.50;;;;;;;15.82;52.85;102384.59;5032976;28;20044;-82
2023/04/09 08:11:29;;;;;;;33.40;30.67;;;;;;;15.83;52.86;102382.72;5040558;28;20029;-83
2023/04/09 08:13:56;;;;;;;36.67;33.20;;;;;;;15.84;53.12;102393.38;5031031;28;20481;-84
2023/04/09 08:16:23;;;;;;;40.30;36.13;;;;;;;15.85;52.89;102375.97;5032388;28;20457;-84
2023/04/09 08:18:51;;;;;;;43.22;37.00;;;;;;;15.87;53.11;102381.97;5031972;28;20033;-84
2023/04/09 08:21:17;;;;;;;37.97;33.95;;;;;;;15.88;53.20;102377.38;5031047;28;20040;-83
2023/04/09 08:23:43;;;;;;;38.38;34.55;;;;;;;15.90;53.23;102375.22;5017915;28;20090;-83
2023/04/09 08:26:08;;;;;;;37.90;34.05;;;;;;;15.90;53.13;102365.19;5027934;28;20064;-82
2023/04/09 08:28:34;;;;;;;43.55;36.38;;;;;;;15.93;53.02;102372.88;5027978;28;20049;-82
2023/04/09 08:31:00;;;;;;;36.22;32.75;;;;;;;15.94;53.02;102371.78;5031574;28;20106;-83
2023/04/09 08:33:26;;;;;;;36.45;33.20;;;;;;;15.96;53.36;102374.28;5027265;28;20041;-83
2023/04/09 08:35:51;;;;;;;39.88;35.67;;;;;;;15.98;53.54;102375.72;5014500;28;20044;-82
2023/04/09 08:38:18;;;;;;;41.92;37.40;;;;;;;16.01;52.85;102377.13;5030318;28;20433;-83
2023/04/09 08:40:43;;;;;;;37.58;33.88;;;;;;;16.03;53.34;102380.44;5013331;28;20112;-83
2023/04/09 08:43:12;;;;;;;36.20;32.83;;;;;;;16.04;53.24;102375.81;5042106;28;20201;-84
2023/04/09 08:45:40;;;;;;;;;;;;;;;16.01;53.31;102375.22;5042015;28;20540;-82
2023/04/09 08:48:08;;;;;;;39.17;35.22;;;;;;;16.04;53.21;102384.00;5020360;28;19909;-84
2023/04/09 08:50:34;;;;;;;41.50;37.08;;;;;;;16.06;53.12;102381.88;5026346;28;20034;-82
2023/04/09 08:53:03;;;;;;;43.88;38.17;;;;;;;16.08;53.40;102385.19;5031050;28;20055;-82
2023/04/09 08:55:30;;;;;;;;;;;;;;;16.06;53.45;102376.41;5020588;28;20037;-82
2023/04/09 08:57:57;;;;;;;40.42;36.28;;;;;;;16.08;53.33;102374.28;5011723;28;19920;-82
2023/04/09 09:00:23;;;;;;;39.60;35.90;;;;;;;16.10;53.32;102375.69;5027221;28;20026;-83
2023/04/09 09:03:03;;;;;;;38.00;34.22;;;;;;;16.12;53.60;102370.81;5030129;28;20042;-84
2023/04/09 09:05:39;;;;;;;43.03;38.90;;;;;;;16.14;53.60;102363.22;5030385;28;20033;-84
2023/04/09 09:08:09;;;;;;;41.40;37.47;;;;;;;16.16;53.18;102366.56;5043665;28;20104;-84
2023/04/09 09:10:44;;;;;;;35.20;31.98;;;;;;;16.17;53.27;102365.47;5029301;28;20041;-83
2023/04/09 09:13:27;;;;;;;36.60;33.63;;;;;;;16.20;53.42;102358.72;5011412;28;20104;-82
2023/04/09 09:15:55;;;;;;;38.80;34.90;;;;;;;16.23;53.23;102358.25;5039900;28;20125;-83
2023/04/09 09:18:37;;;;;;;43.53;38.90;;;;;;;16.26;53.52;102356.94;5032384;28;20029;-83
2023/04/09 09:21:29;;;;;;;37.53;33.67;;;;;;;16.27;53.65;102361.31;5011224;28;20022;-83
2023/04/09 09:23:55;;;;;;;39.25;35.22;;;;;;;16.31;53.47;102357.84;5010488;28;20042;-83
2023/04/09 09:26:26;;;;;;;36.30;32.88;;;;;;;16.33;53.51;102363.06;5021829;28;20144;-86
2023/04/09 09:28:52;;;;;;;43.50;38.20;;;;;;;16.36;53.45;102352.50;5028079;28;20048;-86
2023/04/09 09:31:19;;;;;;;40.40;36.90;;;;;;;16.37;53.42;102356.88;5035105;28;20052;-84
2023/04/09 09:33:46;;;;;;;38.72;35.20;;;;;;;16.38;53.67;102361.28;5030823;28;20061;-80
2023/04/09 09:36:11;;;;;;;41.67;37.95;;;;;;;16.42;53.69;102361.63;5014581;28;20478;-82
2023/04/09 09:38:56;;;;;;;41.80;37.80;;;;;;;16.43;53.50;102349.66;5033284;28;20035;-84
2023/04/09 09:41:22;;;;;;;40.10;35.83;;;;;;;16.46;53.61;102346.44;5034417;28;20068;-81
2023/04/09 09:43:49;;;;;;;42.30;38.05;;;;;;;16.48;53.71;102347.03;5022101;28;20037;-80
2023/04/09 09:46:14;;;;;;;46.15;38.95;;;;;;;16.51;53.82;102341.06;5021819;28;20091;-80
2023/04/09 09:48:41;;;;;;;43.63;39.28;;;;;;;16.54;53.78;102351.50;5035239;28;20397;-81
2023/04/09 09:51:11;;;;;;;40.83;36.92;;;;;;;16.57;53.26;102350.19;5024238;28;20087;-81
2023/04/09 09:53:37;;;;;;;44.55;39.90;;;;;;;16.59;53.45;102340.69;5019368;28;20034;-80
2023/04/09 09:56:13;;;;;;;41.72;37.45;;;;;;;16.59;53.66;102348.84;5014416;28;20037;-80
2023/04/09 09:58:55;;;;;;;44.42;39.75;;;;;;;16.61;53.63;102337.72;5028583;28;20141;-80
2023/04/09 10:01:23;;;;;;;47.30;42.17;;;;;;;16.64;53.57;102332.59;5028442;28;20036;-81
2023/04/09 10:03:50;;;;;;;40.40;36.40;;;;;;;16.67;53.63;102328.53;5013864;28;20038;-82
2023/04/09 10:06:16;;;;;;;44.08;39.75;;;;;;;16.71;53.45;102320.72;5016198;28;20303;-79
2023/04/09 10:08:41;;;;;;;42.20;37.65;;;;;;;16.73;53.93;102316.66;5029227;28;20042;-82
2023/04/09 10:11:07;;;;;;;42.80;38.30;;;;;;;16.76;53.96;102318.88;5031895;28;20464;-81
2023/04/09 10:13:37;;;;;;;41.05;37.20;;;;;;;16.79;53.56;102317.59;5029894;28;20021;-80
2023/04/09 10:16:03;;;;;;;38.78;35.08;;;;;;;16.81;53.96;102313.56;5029805;28;20083;-81
2023/04/09 10:18:32;;;;;;;40.70;36.95;;;;;;;16.85;53.59;102316.59;5030120;28;20037;-79
2023/04/09 10:21:04;;;;;;;41.45;37.47;;;;;;;16.87;53.70;102306.28;5012655;28;20031;-81
2023/04/09 10:23:39;;;;;;;44.83;40.17;;;;;;;16.89;53.63;102301.41;5023631;28;20657;-79
2023/04/09 10:26:05;;;;;;;42.25;38.55;;;;;;;16.92;53.49;102298.16;5030688;28;20454;-82
2023/04/09 10:28:30;;;;;;;43.13;38.50;;;;;;;16.95;53.82;102303.13;5018057;28;20486;-79
2023/04/09 10:30:58;;;;;;;37.22;34.15;;;;;;;16.98;53.92;102293.63;5017943;28;20046;-82
2023/04/09 10:33:25;;;;;;;45.85;41.15;;;;;;;17.01;53.72;102291.25;5011640;28;20037;-85
2023/04/09 10:35:53;;;;;;;41.80;37.97;;;;;;;17.03;53.48;102289.09;5027173;28;20030;-80
2023/04/09 10:38:33;;;;;;;40.72;37.10;;;;;;;17.04;53.80;102288.00;5031763;28;20100;-81
2023/04/09 10:41:06;;;;;;;40.03;36.38;;;;;;;17.07;53.97;102284.78;5029550;28;20124;-79
2023/04/09 10:43:35;;;;;;;41.45;37.13;;;;;;;17.12;53.59;102285.94;5025537;28;20056;-78
2023/04/09 10:46:00;;;;;;;;;;;;;;;17.11;54.06;102281.53;5024421;28;20116;-79
2023/04/09 10:48:26;;;;;;;41.85;37.83;;;;;;;17.14;53.98;102275.59;5027136;28;20278;-80
2023/04/09 10:50:51;;;;;;;39.58;36.15;;;;;;;17.16;53.75;102274.28;5030950;28;20033;-79
2023/04/09 10:53:22;;;;;;;37.50;34.13;;;;;;;17.20;53.72;102275.41;5029645;28;20061;-80
2023/04/09 10:55:51;;;;;;;42.92;38.65;;;;;;;17.23;53.96;102276.81;5019645;28;20045;-82
2023/04/09 10:58:17;;;;;;;42.53;38.28;;;;;;;17.27;53.98;102267.88;5011493;28;20040;-81
2023/04/09 11:00:47;;;;;;;43.45;39.50;;;;;;;17.29;53.75;102276.66;5011718;28;20037;-82
2023/04/09 11:03:28;;;;;;;41.55;37.30;;;;;;;17.32;53.24;102275.31;5027422;28;20112;-81
2023/04/09 11:05:59;;;;;;;38.00;35.03;;;;;;;17.37;53.74;102271.84;5011891;28;20060;-81
2023/04/09 11:08:29;;;;;;;44.42;40.22;;;;;;;17.40;53.31;102269.44;5010712;28;20030;-82
2023/04/09 11:10:57;;;;;;;38.45;35.50;;;;;;;17.44;53.44;102261.56;5020981;28;20053;-82